createdAt,value
2019-02-28T00:01:46.281Z,15.07
2019-02-28T00:04:12.727Z,15.60
2019-02-28T00:06:40.233Z,16.47
2019-02-28T00:09:09.219Z,17.13
2019-02-28T00:11:39.525Z,17.40
2019-02-28T00:14:06.023Z,17.57
2019-02-28T00:16:35.662Z,16.53
2019-02-28T00:19:02.714Z,17.70
2019-02-28T00:21:31.064Z,16.43
2019-02-28T00:23:58.453Z,18.60
2019-02-28T00:26:25.943Z,18.27
2019-02-28T00:28:53.343Z,18.47
2019-02-28T00:31:20.803Z,19.50
2019-02-28T00:33:48.698Z,19.63
2019-02-28T00:36:16.285Z,20.30
2019-02-28T00:38:45.559Z,20.30
2019-02-28T00:41:13.003Z,21.27
2019-02-28T00:43:40.483Z,21.80
2019-02-28T00:46:10.112Z,21.77
2019-02-28T00:48:37.224Z,23.73
2019-02-28T00:51:04.744Z,24.20
2019-02-28T00:53:32.378Z,23.57
2019-02-28T00:55:59.758Z,24.03
2019-02-28T00:58:28.864Z,23.23
2019-02-28T01:00:56.499Z,23.73
2019-02-28T01:03:27.417Z,23.47
2019-02-28T01:05:53.203Z,24.93
2019-02-28T01:08:22.131Z,22.73
2019-02-28T01:10:49.933Z,22.73
2019-02-28T01:13:17.353Z,22.50
2019-02-28T01:15:45.723Z,23.67
2019-02-28T01:18:13.315Z,23.00
2019-02-28T01:20:40.687Z,21.53
2019-02-28T01:23:08.213Z,22.50
2019-02-28T01:25:37.174Z,22.77
2019-02-28T01:28:04.958Z,20.67
2019-02-28T01:30:32.383Z,22.80
2019-02-28T01:32:59.813Z,21.97
2019-02-28T01:35:27.208Z,22.37
2019-02-28T01:37:54.676Z,22.07
2019-02-28T01:40:22.058Z,22.10
2019-02-28T01:42:53.914Z,22.73
2019-02-28T01:45:18.779Z,23.63
2019-02-28T01:47:46.233Z,22.40
2019-02-28T01:50:13.727Z,23.30
2019-02-28T01:52:44.846Z,22.10
2019-02-28T01:55:11.373Z,21.53
2019-02-28T01:57:42.507Z,22.03
2019-02-28T02:00:10.474Z,21.93
2019-02-28T02:02:38.971Z,21.90
2019-02-28T02:05:06.913Z,22.80
2019-02-28T02:07:35.123Z,22.30
2019-02-28T02:10:03.945Z,22.30
2019-02-28T02:12:32.469Z,22.33
2019-02-28T02:14:59.883Z,22.50
2019-02-28T02:17:27.403Z,23.83
2019-02-28T02:19:54.794Z,23.47
2019-02-28T02:22:22.243Z,23.37
2019-02-28T02:24:49.623Z,23.17
2019-02-28T02:27:19.540Z,22.73
2019-02-28T02:29:46.303Z,24.73
2019-02-28T02:32:13.758Z,22.67
2019-02-28T02:34:41.155Z,22.97
2019-02-28T02:37:08.533Z,22.27
2019-02-28T02:39:35.970Z,25.60
2019-02-28T02:42:09.979Z,26.20
2019-02-28T02:44:32.700Z,25.30
2019-02-28T02:47:00.155Z,24.20
2019-02-28T02:49:27.561Z,27.00
2019-02-28T02:51:54.935Z,27.27
2019-02-28T02:54:22.381Z,26.77
2019-02-28T02:56:49.798Z,29.20
2019-02-28T02:59:17.599Z,28.00
2019-02-28T03:01:44.990Z,27.83
2019-02-28T03:04:21.391Z,27.00
2019-02-28T03:06:45.863Z,30.50
2019-02-28T03:09:11.250Z,29.10
2019-02-28T03:11:38.753Z,31.23
2019-02-28T03:14:06.160Z,30.43
2019-02-28T03:16:34.635Z,29.63
2019-02-28T03:19:02.274Z,30.80
2019-02-28T03:21:29.670Z,31.27
2019-02-28T03:23:57.159Z,31.03
2019-02-28T03:26:24.591Z,32.53
2019-02-28T03:28:52.044Z,31.40
2019-02-28T03:31:19.544Z,33.33
2019-02-28T03:33:47.031Z,33.80
2019-02-28T03:36:15.828Z,35.13
2019-02-28T03:38:48.622Z,32.83
2019-02-28T03:41:17.642Z,34.00
2019-02-28T03:43:43.771Z,31.63
2019-02-28T03:46:11.706Z,33.87
2019-02-28T03:48:39.198Z,36.70
2019-02-28T03:51:06.605Z,34.63
2019-02-28T03:53:34.012Z,36.00
2019-02-28T03:56:01.387Z,36.67
2019-02-28T03:58:28.813Z,35.63
2019-02-28T04:00:56.195Z,34.10
2019-02-28T04:03:23.626Z,36.50
2019-02-28T04:05:51.048Z,37.40
2019-02-28T04:08:19.114Z,35.47
2019-02-28T04:10:46.778Z,38.47
2019-02-28T04:13:14.174Z,36.73
2019-02-28T04:15:49.567Z,38.83
2019-02-28T04:18:11.050Z,38.00
2019-02-28T04:20:38.456Z,39.07
2019-02-28T04:23:05.942Z,37.07
2019-02-28T04:25:33.383Z,37.60
2019-02-28T04:28:00.851Z,38.80
2019-02-28T04:30:32.429Z,37.67
2019-02-28T04:33:01.488Z,39.03
2019-02-28T04:35:29.159Z,36.23
2019-02-28T04:37:56.529Z,36.47
2019-02-28T04:40:26.774Z,36.53
2019-02-28T04:42:53.241Z,35.53
2019-02-28T04:45:23.325Z,34.40
2019-02-28T04:47:50.100Z,34.37
2019-02-28T04:50:18.123Z,33.93
2019-02-28T04:52:48.058Z,35.60
2019-02-28T04:55:14.908Z,33.97
2019-02-28T04:57:42.328Z,34.37
2019-02-28T05:00:09.998Z,34.00
2019-02-28T05:02:37.381Z,32.47
2019-02-28T05:05:04.948Z,32.00
2019-02-28T05:07:32.339Z,34.53
2019-02-28T05:09:59.873Z,35.10
2019-02-28T05:12:27.297Z,36.43
2019-02-28T05:14:55.320Z,34.67
2019-02-28T05:17:24.009Z,34.40
2019-02-28T05:19:51.443Z,34.30
2019-02-28T05:22:18.828Z,33.87
2019-02-28T05:24:46.273Z,36.33
2019-02-28T05:27:13.668Z,36.00
2019-02-28T05:29:43.898Z,35.27
2019-02-28T05:32:10.683Z,33.87
2019-02-28T05:34:38.100Z,33.50
2019-02-28T05:37:05.508Z,34.57
2019-02-28T05:39:32.979Z,32.27
2019-02-28T05:42:00.382Z,33.80
2019-02-28T05:44:28.089Z,32.43
2019-02-28T05:46:58.103Z,28.97
2019-02-28T05:49:25.923Z,33.87
2019-02-28T05:51:53.302Z,37.83
2019-02-28T05:54:20.761Z,34.87
2019-02-28T05:56:48.203Z,37.10
2019-02-28T05:59:15.562Z,37.73
2019-02-28T06:01:46.577Z,38.10
2019-02-28T06:04:12.316Z,36.67
2019-02-28T06:06:39.755Z,38.10
2019-02-28T06:09:07.142Z,36.87
2019-02-28T06:11:35.634Z,36.90
2019-02-28T06:14:03.372Z,39.40
2019-02-28T06:16:30.782Z,35.80
2019-02-28T06:18:58.176Z,35.93
2019-02-28T06:21:25.634Z,37.73
2019-02-28T06:23:53.059Z,35.57
2019-02-28T06:26:20.491Z,36.07
2019-02-28T06:28:47.909Z,36.73
2019-02-28T06:31:15.421Z,37.57
2019-02-28T06:33:43.036Z,36.60
2019-02-28T06:36:10.466Z,35.60
2019-02-28T06:38:37.871Z,39.00
2019-02-28T06:41:07.692Z,36.87
2019-02-28T06:43:34.576Z,35.90
2019-02-28T06:46:03.705Z,36.60
2019-02-28T06:48:31.262Z,35.23
2019-02-28T06:50:58.666Z,34.47
2019-02-28T06:53:27.150Z,35.70
2019-02-28T06:55:54.597Z,35.50
2019-02-28T06:58:22.021Z,34.47
2019-02-28T07:00:59.781Z,35.20
2019-02-28T07:03:23.101Z,33.90
2019-02-28T07:05:50.705Z,34.90
2019-02-28T07:08:24.448Z,34.93
2019-02-28T07:10:51.834Z,34.77
2019-02-28T07:13:19.255Z,36.27
2019-02-28T07:15:49.254Z,35.00
2019-02-28T07:18:18.829Z,34.77
2019-02-28T07:20:48.041Z,36.40
2019-02-28T07:23:15.553Z,37.23
2019-02-28T07:25:44.322Z,35.57
2019-02-28T07:28:12.371Z,34.33
2019-02-28T07:30:40.114Z,35.73
2019-02-28T07:33:10.569Z,35.80
2019-02-28T07:35:37.008Z,35.70
2019-02-28T07:38:04.566Z,37.27
2019-02-28T07:40:33.271Z,37.97
2019-02-28T07:43:01.011Z,39.57
2019-02-28T07:45:29.601Z,37.33
2019-02-28T07:47:57.806Z,37.27
2019-02-28T07:50:25.181Z,39.47
2019-02-28T07:52:53.272Z,38.43
2019-02-28T07:55:20.945Z,37.83
2019-02-28T07:57:54.235Z,39.77
2019-02-28T08:00:18.771Z,41.03
2019-02-28T08:02:46.705Z,40.20
2019-02-28T08:05:14.468Z,37.73
2019-02-28T08:07:42.229Z,38.17
2019-02-28T08:10:12.811Z,37.33
2019-02-28T08:12:41.135Z,38.97
2019-02-28T08:15:13.675Z,36.30
2019-02-28T08:17:43.852Z,39.40
2019-02-28T08:20:11.438Z,39.30
2019-02-28T08:22:39.110Z,40.43
2019-02-28T08:25:08.579Z,38.20
2019-02-28T08:27:36.447Z,38.63
2019-02-28T08:30:05.470Z,37.30
2019-02-28T08:32:33.875Z,38.20
2019-02-28T08:35:02.034Z,39.87
2019-02-28T08:37:29.760Z,38.17
2019-02-28T08:39:57.444Z,38.03
2019-02-28T08:42:25.144Z,39.73
2019-02-28T08:45:00.805Z,39.33
2019-02-28T08:47:28.425Z,38.50
2019-02-28T08:49:56.055Z,38.47
2019-02-28T08:52:32.885Z,39.10
2019-02-28T08:55:09.279Z,41.07
2019-02-28T08:57:37.266Z,40.10
2019-02-28T09:00:06.585Z,39.20
2019-02-28T09:02:34.185Z,40.73
2019-02-28T09:05:01.767Z,40.43
2019-02-28T09:07:29.365Z,39.67
2019-02-28T09:09:57.185Z,40.47
2019-02-28T09:12:24.704Z,39.57
2019-02-28T09:14:55.415Z,40.23
2019-02-28T09:17:23.671Z,40.07
2019-02-28T09:19:51.103Z,41.90
2019-02-28T09:22:18.499Z,40.87
2019-02-28T09:24:46.736Z,41.23
2019-02-28T09:27:15.873Z,41.30
2019-02-28T09:29:43.317Z,40.50
2019-02-28T09:32:13.523Z,40.40
2019-02-28T09:34:41.284Z,40.93
2019-02-28T09:37:08.857Z,42.47
2019-02-28T09:39:36.347Z,43.40
2019-02-28T09:42:03.967Z,40.93
2019-02-28T09:44:32.408Z,42.83
2019-02-28T09:47:00.012Z,42.37
2019-02-28T09:49:27.575Z,43.07
2019-02-28T09:51:54.947Z,42.93
2019-02-28T09:54:24.401Z,43.33
2019-02-28T09:56:51.717Z,44.13
2019-02-28T09:59:19.553Z,45.17
2019-02-28T10:01:46.947Z,47.30
2019-02-28T10:04:14.422Z,43.07
2019-02-28T10:06:41.909Z,47.67
2019-02-28T10:09:09.650Z,45.67
2019-02-28T10:11:37.254Z,48.67
2019-02-28T10:14:04.877Z,51.33
2019-02-28T10:16:32.414Z,49.83
2019-02-28T10:19:00.034Z,49.63
2019-02-28T10:21:27.574Z,47.37
2019-02-28T10:23:56.849Z,50.00
2019-02-28T10:26:25.635Z,48.03
2019-02-28T10:28:53.436Z,48.33
2019-02-28T10:31:22.853Z,48.97
2019-02-28T10:33:52.532Z,50.77
2019-02-28T10:36:20.095Z,51.37
2019-02-28T10:38:47.794Z,49.83
2019-02-28T10:41:15.522Z,51.30
2019-02-28T10:43:43.317Z,48.80
2019-02-28T10:46:13.321Z,49.93
2019-02-28T10:48:50.467Z,49.63
2019-02-28T10:51:14.089Z,51.90
2019-02-28T10:53:40.258Z,49.93
2019-02-28T10:56:07.887Z,49.50
2019-02-28T10:58:35.454Z,52.27
2019-02-28T11:01:07.564Z,49.83
2019-02-28T11:03:33.260Z,49.60
2019-02-28T11:06:00.994Z,50.73
2019-02-28T11:08:28.495Z,49.33
2019-02-28T11:10:56.118Z,50.87
2019-02-28T11:13:23.717Z,49.70
2019-02-28T11:15:51.454Z,47.60
2019-02-28T11:18:19.493Z,48.30
2019-02-28T11:20:47.094Z,50.57
2019-02-28T11:23:15.872Z,48.67
2019-02-28T11:25:43.974Z,48.97
2019-02-28T11:28:11.634Z,46.87
2019-02-28T11:30:44.005Z,49.23
2019-02-28T11:33:09.115Z,46.83
2019-02-28T11:35:36.794Z,47.73
2019-02-28T11:38:05.094Z,47.60
2019-02-28T11:40:33.605Z,46.47
2019-02-28T11:43:02.726Z,46.33
2019-02-28T11:45:32.226Z,47.80
2019-02-28T11:48:02.275Z,49.93
2019-02-28T11:50:29.974Z,44.80
2019-02-28T11:53:03.261Z,46.17
2019-02-28T11:55:27.250Z,47.50
2019-02-28T11:57:54.924Z,43.73
2019-02-28T12:00:26.454Z,47.00
2019-02-28T12:02:59.919Z,45.63
2019-02-28T12:05:23.783Z,47.90
2019-02-28T12:07:51.274Z,47.33
2019-02-28T12:10:19.155Z,46.47
2019-02-28T12:12:46.754Z,44.40
2019-02-28T12:15:15.814Z,43.90
2019-02-28T12:17:43.454Z,42.27
2019-02-28T12:20:11.935Z,43.83
2019-02-28T12:22:39.676Z,45.77
2019-02-28T12:25:08.529Z,45.17
2019-02-28T12:27:36.176Z,44.30
2019-02-28T12:30:05.095Z,44.70
2019-02-28T12:32:33.019Z,45.37
2019-02-28T12:35:02.295Z,46.80
2019-02-28T12:37:36.474Z,44.50
2019-02-28T12:40:49.917Z,45.33
2019-02-28T12:43:30.255Z,47.57
2019-02-28T12:46:00.122Z,46.57
2019-02-28T12:48:27.616Z,45.50
2019-02-28T12:50:56.403Z,48.73
2019-02-28T12:53:35.255Z,47.97
2019-02-28T12:56:25.214Z,47.93
2019-02-28T12:59:02.815Z,49.77
2019-02-28T13:01:58.514Z,47.83
2019-02-28T13:04:39.387Z,48.50
2019-02-28T13:07:15.273Z,47.47
2019-02-28T13:10:06.947Z,47.27
2019-02-28T13:12:35.145Z,47.90
2019-02-28T13:15:46.805Z,49.47
2019-02-28T13:18:34.865Z,47.33
2019-02-28T13:21:43.614Z,49.67
2019-02-28T13:24:16.306Z,48.03
2019-02-28T13:28:17.678Z,48.80
2019-02-28T13:32:04.020Z,49.07
2019-02-28T13:41:22.111Z,49.13
2019-02-28T13:44:36.290Z,50.83
2019-02-28T13:47:58.062Z,50.50
2019-02-28T13:51:40.696Z,48.07
2019-02-28T13:54:23.509Z,48.70
2019-02-28T13:57:13.626Z,49.63
2019-02-28T14:00:24.020Z,46.77
2019-02-28T14:02:56.609Z,49.07
2019-02-28T14:06:19.794Z,47.53
2019-02-28T14:08:47.764Z,48.77
2019-02-28T14:12:05.690Z,49.77
2019-02-28T14:14:42.291Z,49.37
2019-02-28T14:18:11.588Z,49.30
2019-02-28T14:20:37.933Z,52.03
2019-02-28T14:23:05.725Z,49.83
2019-02-28T14:25:39.794Z,49.43
2019-02-28T14:28:06.494Z,49.63
2019-02-28T14:31:32.980Z,52.30
2019-02-28T14:33:16.187Z,48.83
2019-02-28T14:35:57.894Z,51.23
2019-02-28T14:38:51.465Z,47.07
2019-02-28T14:44:58.970Z,47.40
2019-02-28T14:47:28.523Z,48.30
2019-02-28T14:51:07.467Z,49.00
2019-02-28T14:53:49.128Z,48.17
2019-02-28T14:56:49.056Z,47.03
2019-02-28T15:00:42.301Z,47.03
2019-02-28T15:04:17.004Z,43.27
2019-02-28T15:07:59.033Z,42.80
2019-02-28T15:11:10.025Z,44.20
2019-02-28T15:14:37.305Z,48.60
2019-02-28T15:17:38.667Z,37.50
2019-02-28T15:20:31.701Z,47.17
2019-02-28T15:23:02.783Z,47.73
2019-02-28T15:25:35.782Z,46.53
2019-02-28T15:28:19.844Z,48.50
2019-02-28T15:34:25.237Z,45.87
2019-02-28T15:37:04.243Z,46.07
2019-02-28T15:39:36.808Z,47.57
2019-02-28T15:43:41.927Z,47.57
2019-02-28T15:46:01.805Z,47.33
2019-02-28T15:55:50.194Z,46.20
2019-02-28T15:58:42.322Z,45.53
2019-02-28T16:02:09.445Z,48.43
2019-02-28T16:05:05.689Z,48.40
2019-02-28T16:08:21.951Z,46.57
2019-02-28T16:11:27.721Z,44.77
2019-02-28T16:14:14.288Z,47.77
2019-02-28T16:17:14.644Z,45.63
2019-02-28T16:19:48.568Z,47.73
2019-02-28T16:23:16.223Z,48.40
2019-02-28T16:25:46.888Z,46.67
2019-02-28T16:28:29.806Z,48.23
2019-02-28T16:31:18.736Z,46.33
2019-02-28T16:33:52.161Z,49.20
2019-02-28T16:40:57.701Z,47.13
2019-02-28T16:48:06.998Z,49.10
2019-02-28T16:51:03.106Z,53.23
2019-02-28T17:01:45.906Z,54.80
2019-02-28T17:05:28.164Z,52.37
2019-02-28T17:20:22.176Z,53.57
2019-02-28T17:22:52.209Z,54.23
2019-02-28T17:25:39.800Z,53.80
2019-02-28T17:28:23.997Z,59.83
2019-02-28T17:31:12.506Z,48.80
2019-02-28T17:34:31.241Z,57.67
2019-02-28T17:37:36.213Z,53.03
2019-02-28T17:40:09.254Z,58.87
2019-02-28T17:43:04.113Z,61.90
2019-02-28T17:46:22.767Z,58.50
2019-02-28T17:49:50.874Z,58.90
2019-02-28T17:53:18.472Z,52.53
2019-02-28T17:58:06.922Z,42.67
2019-02-28T18:00:57.468Z,48.43
2019-02-28T18:08:27.815Z,38.07
2019-02-28T18:12:05.967Z,35.53
2019-02-28T18:18:53.234Z,31.67
2019-02-28T18:22:12.935Z,32.93
2019-02-28T18:25:32.754Z,31.20
2019-02-28T18:28:58.914Z,29.70
2019-02-28T18:32:12.654Z,31.67
2019-02-28T18:34:48.923Z,31.00
2019-02-28T18:37:17.422Z,33.83
2019-02-28T18:40:10.576Z,32.03
2019-02-28T18:42:54.054Z,33.07
2019-02-28T18:45:38.186Z,34.90
2019-02-28T18:48:25.745Z,32.60
2019-02-28T18:51:20.394Z,33.17
2019-02-28T18:53:50.938Z,32.67
2019-02-28T18:56:39.307Z,34.20
2019-02-28T18:59:16.404Z,31.93
2019-02-28T19:01:50.463Z,34.97
2019-02-28T19:04:24.645Z,34.67
2019-02-28T19:06:56.102Z,32.80
2019-02-28T19:09:25.162Z,35.80
2019-02-28T19:11:59.295Z,36.20
2019-02-28T19:14:38.065Z,37.47
2019-02-28T19:17:10.771Z,40.30
2019-02-28T19:19:39.262Z,41.17
2019-02-28T19:22:07.534Z,39.50
2019-02-28T19:24:36.242Z,41.70
2019-02-28T19:27:05.788Z,40.30
2019-02-28T19:29:34.106Z,41.33
2019-02-28T19:32:02.255Z,42.60
2019-02-28T19:34:30.509Z,42.60
2019-02-28T19:36:59.714Z,45.90
2019-02-28T19:39:27.695Z,42.17
2019-02-28T19:41:55.834Z,43.70
2019-02-28T19:44:23.835Z,43.33
2019-02-28T19:46:52.094Z,43.00
2019-02-28T19:49:20.440Z,43.13
2019-02-28T19:51:48.878Z,43.57
2019-02-28T19:54:18.038Z,44.30
2019-02-28T19:56:46.683Z,44.07
2019-02-28T19:59:15.455Z,45.80
2019-02-28T20:01:45.333Z,42.57
2019-02-28T20:04:15.390Z,46.13
2019-02-28T20:06:43.902Z,47.53
2019-02-28T20:09:13.554Z,44.47
2019-02-28T20:11:41.594Z,46.93
2019-02-28T20:14:09.674Z,43.67
2019-02-28T20:16:38.014Z,44.77
2019-02-28T20:19:07.215Z,43.90
2019-02-28T20:21:35.295Z,41.23
2019-02-28T20:24:03.497Z,42.87
2019-02-28T20:26:31.622Z,45.03
2019-02-28T20:28:59.955Z,44.03
2019-02-28T20:31:29.854Z,47.33
2019-02-28T20:33:57.856Z,43.47
2019-02-28T20:36:27.142Z,42.27
2019-02-28T20:38:56.619Z,42.50
2019-02-28T20:41:24.676Z,41.07
2019-02-28T20:43:54.855Z,38.57
2019-02-28T20:46:22.934Z,36.07
2019-02-28T20:48:50.956Z,37.87
2019-02-28T20:51:19.479Z,37.67
2019-02-28T20:53:47.434Z,38.03
2019-02-28T20:56:15.594Z,37.57
2019-02-28T20:58:43.555Z,35.13
2019-02-28T21:01:11.948Z,35.37
2019-02-28T21:03:40.114Z,35.47
2019-02-28T21:06:08.155Z,33.23
2019-02-28T21:08:36.284Z,32.03
2019-02-28T21:11:04.414Z,31.60
2019-02-28T21:13:32.495Z,29.07
2019-02-28T21:16:00.776Z,31.03
2019-02-28T21:18:28.734Z,31.07
2019-02-28T21:20:56.694Z,31.03
2019-02-28T21:23:24.655Z,31.53
2019-02-28T21:25:52.665Z,30.73
2019-02-28T21:28:20.906Z,29.83
2019-02-28T21:30:49.054Z,30.97
2019-02-28T21:33:17.202Z,31.27
2019-02-28T21:35:45.237Z,32.10
2019-02-28T21:38:13.275Z,32.90
2019-02-28T21:40:41.274Z,30.77
2019-02-28T21:43:09.247Z,32.63
2019-02-28T21:45:37.315Z,32.03
2019-02-28T21:48:05.278Z,32.13
2019-02-28T21:50:32.894Z,32.53
2019-02-28T21:53:00.696Z,31.17
2019-02-28T21:55:28.235Z,31.47
2019-02-28T21:57:56.035Z,30.30
2019-02-28T22:00:23.874Z,31.63
2019-02-28T22:02:51.495Z,31.00
2019-02-28T22:05:19.197Z,30.90
2019-02-28T22:07:46.800Z,29.90
2019-02-28T22:10:14.576Z,30.40
2019-02-28T22:12:42.174Z,30.97
2019-02-28T22:15:11.974Z,31.40
2019-02-28T22:17:40.173Z,30.87
2019-02-28T22:20:09.015Z,31.73
2019-02-28T22:22:36.635Z,30.07
2019-02-28T22:25:04.387Z,30.57
2019-02-28T22:27:32.135Z,30.87
2019-02-28T22:30:02.294Z,30.90
2019-02-28T22:32:35.644Z,29.47
2019-02-28T22:35:25.774Z,30.50
2019-02-28T22:37:53.355Z,31.60
2019-02-28T22:40:20.895Z,30.17
2019-02-28T22:42:48.454Z,31.43
2019-02-28T22:45:17.214Z,29.87
2019-02-28T22:47:44.754Z,29.87
2019-02-28T22:50:13.154Z,28.00
2019-02-28T22:52:40.757Z,26.93
2019-02-28T22:55:08.594Z,27.50
2019-02-28T22:57:36.235Z,27.43
2019-02-28T23:00:08.434Z,27.40
2019-02-28T23:02:35.955Z,26.17
2019-02-28T23:05:03.671Z,26.60
2019-02-28T23:07:31.242Z,22.40
2019-02-28T23:09:58.814Z,25.60
2019-02-28T23:12:26.371Z,23.67
2019-02-28T23:14:56.751Z,25.30
2019-02-28T23:17:24.534Z,24.97
2019-02-28T23:19:52.117Z,25.87
2019-02-28T23:22:19.695Z,24.20
2019-02-28T23:24:47.455Z,24.17
2019-02-28T23:27:16.714Z,25.27
2019-02-28T23:30:00.545Z,20.60
2019-02-28T23:33:08.069Z,22.67
2019-02-28T23:35:49.173Z,23.40
2019-02-28T23:38:25.153Z,20.70
2019-02-28T23:41:03.109Z,22.50
2019-02-28T23:43:31.474Z,22.00
2019-02-28T23:45:59.454Z,22.53
2019-02-28T23:48:28.013Z,23.77
2019-02-28T23:51:05.154Z,22.40
2019-02-28T23:53:36.934Z,24.20
2019-02-28T23:56:04.792Z,23.73
2019-02-28T23:58:33.677Z,24.13
